首页
METAR-TAF:

METAR-TAF

机场 :

萨摩斯岛, 希腊

纬度: 37-42N, 经度: 026-55E, 海拔: 2米

当前天气观测

该预报发布于18分钟前的01:50 UTC
风速7节,风向东南
温度 14°C
湿度 82%
气压 1016 hPa
能见度10公里或以上
散云层高于2000英尺

METAR: LGSM 310150Z 14007KT 9999 SCT020 14/11 Q1016

时间: 05:08 (02:08 UTC)

预报

该预报发布于3小时和8分钟前的23:00 UTC
预报有效从31日的 00点(UTC)到 31日的 09点(UTC)
风速8节,风向西南
能见度10公里或以上
少量云层高于1800英尺
成为
从 31日的 02点(UTC)到 31日的 04点(UTC)
散云层高于1800英尺

TAF: LGSM 302300Z 3100/3109 22008KT 9999 FEW018 BECMG 3102/3104 SCT018

超过4000个机场的气象观测和天气预报(METAR&TAF报告)。

可查询的气象台以黄色和红色小点在地图上表示。

将鼠标移到小点上方,可查看气象台名称。

然后点击查看天气观测和预报。

如需切换地图:点击带黑十字的绿色按钮放大地图;点击带横线的绿色按钮缩小地图;或者点击绿色箭头查看邻近地区的地图。


METAR-TAF: